To NAV CANADA Home Page Login to a new session Search on AWWS site Disclaimer Vers la page française équivalente Tips FAQ What's new on the site To the Forecasts and Observations / NOTAM section To "File a Flight Plan" website Publications and other links Update of the User's profile FIC Telephone Numbers My Weather Data Folder Route Weather Data Regional Weather Data Local Weather Data To the Forecasts and Observations / NOTAM section
Request Generated 04/24/2019 at 16:00:29 UTC . Weather information available at that time is displayed.

METAR/TAF

EDMONTON INTL/AB    

METAR CYEG 241500Z 29012G17KT 20SM BKN060 OVC250 07/M06 A2997 RMK SC7CI1 VIRGA SLP172=
METAR CYEG 241400Z 27010KT 20SM BKN070 BKN250 05/M06 A2996 RMK AC6CI1 VIRGA SLP166=
METAR CYEG 241300Z CCA 28006KT 20SM BKN080 BKN260 03/M06 A2995 RMK AC5CI2 VIRGA OVHD ACINVDG FM E SLP159=
METAR CYEG 241300Z 28006KT 20SM BKN080 BKN260 03/M06 A2995 RMK AC5CI2 VIRGA OVHD SLP159=

TAF CYEG 241439Z 2415/2512 29010KT P6SM BKN070 BKN250 TEMPO 2415/2418
P6SM VCSH OVC070
FM241800 29015G25KT P6SM OVC080 TEMPO 2418/2421 P6SM -SHRA OVC060
FM242100 29020G30KT P6SM SCT080 TEMPO 2421/2502 P6SM VCSH BKN080
FM250200 29020G30KT P6SM SKC
BECMG 2504/2506 29012KT
RMK NXT FCST BY 241800Z=
Your time UTC time
Weather data provided by Environment Canada and NAV CANADA